Ag Mortgage Investment Trust (MITT) Latest Bloomsberg Price


Mffais Ranking #686 Overall / #10 Industry
Industry: Mortgage Finance

Number of Companies: 66 (Ranking #2059 Overall/#34 Industry)
Inflow: $ 7,242 (K) (Ranking #2108 Overall/#31 Industry)
Outflow: $ -4,138 (K)
Mffais Flow: $ 3,103 (K) (Ranking #686 Overall/#10 Industry)


Receive a FREE weekly executive review of stocks moving into the top 10, taking the top industy spot or moving up within their industry. Sent directly to your Inbox every Saturday. Sign up today and get last week's review immediately sent to you.

We value and respect your privacy. Please read our Terms and Conditions which states our firm commitment to your privacy. Your email address will not be shared with a third party, nor will it be sold or used for purposes other than subscription for the weekly review.

Owner CPOR Shares Action Qty Chg Invested (K) Total Current Value (K)
Whitebox Advisors Llc 2016-09-30 156,075 Added More 137,366 $ 2,012 $ 2,286
Martingale Asset Management L P 2016-09-30 124,712 New Holding 124,712 $ 1,827 $ 1,827
Van Eck Associates Corp 2016-09-30 88,307 New Holding 88,307 $ 1,293 $ 1,293
Bessemer Group Inc 2016-09-30 59,500 New Holding 59,500 $ 871 $ 871
Yorktown Management Research Co Inc 2016-09-30 500,000 Added More 20,000 $ 293 $ 7,325
Northpointe Capital Llc 2016-09-30 206,319 Added More 18,886 $ 276 $ 3,022
Stifel Financial Corp 2016-09-30 410,394 Added More 7,846 $ 114 $ 6,012
Sei Investments Co 2016-09-30 29,560 Added More 6,534 $ 95 $ 433
Aperio Group Llc 2016-09-30 57,629 Added More 5,242 $ 76 $ 844
Indexiq Advisors Llc 2016-09-30 27,682 Added More 5,197 $ 76 $ 405
Northern Trust Corp 2016-09-30 311,563 Added More 5,132 $ 75 $ 4,564
New York State Common Retirement Fund 2016-09-30 29,000 Added More 3,100 $ 45 $ 424
Ladenburg Thalmann Financial Services Inc 2016-09-30 3,486 Added More 3,000 $ 43 $ 51
Rothschild Asset Management Inc 2016-09-30 433,717 Added More 2,808 $ 41 $ 6,353
Parametric Portfolio Associates Llc 2016-09-30 169,724 Added More 2,592 $ 37 $ 2,486
Teachers Advisors Inc 2016-09-30 56,643 Added More 1,902 $ 27 $ 829
Advisor Group Inc 2016-09-30 1,850 Added More 694 $ 10 $ 27
California State Teachers Retirement System 2016-09-30 59,547 Added More 400 $ 5 $ 872
Zurcher Kantonalbank Zurich Cantonalbank 2016-09-30 2,729 Added More 381 $ 5 $ 39
Rhumbline Advisers 2016-09-30 34,789 Added More 350 $ 5 $ 509
Next Financial Group Inc 2016-09-30 87 New Holding 87 $ 1 $ 1
Blackrock Inc 2016-09-30 8,592 Added More 84 $ 1 $ 125
Penserra Capital Management Llc 2016-09-30 404 Added More 83 $ 1 $ 5
Simplex Trading Llc 2016-09-30 46 New Holding 46 $ 0 $ 0
Proficio Capital Partners Llc 2016-09-30 36 New Holding 36 $ 0 $ 0
Tower Research Capital Llc Trc 2016-09-30 544 Added More 29 $ 0 $ 7
American International Group Inc 2016-09-30 16,198 Added More 24 $ 0 $ 237
Creative Planning 2016-09-30 2,829 Added More 19 $ 0 $ 41
Swiss National Bank 2016-09-30 48,800 No Change 0 $ 0 $ 714
Fifth Third Bancorp 2016-09-30 12,800 No Change 0 $ 0 $ 187
Bb T Corp 2016-09-30 15,000 No Change 0 $ 0 $ 219
Deere Co 2016-09-30 18,177 No Change 0 $ 0 $ 266
Old National Bancorp In 2016-09-30 20,000 No Change 0 $ 0 $ 293
First Manhattan Co 2016-09-30 210 No Change 0 $ 0 $ 3
Angelo Gordon Co L P 2016-09-30 400,000 No Change 0 $ 0 $ 5,860
Nationwide Fund Advisors 2016-09-30 27,213 No Change 0 $ 0 $ 398
Northwestern Mutual Wealth Management Co 2016-09-30 22 No Change 0 $ 0 $ 0
Inventrust Properties Corp 2016-09-30 25,000 No Change 0 $ 0 $ 366
Clarivest Asset Management Llc 2016-09-30 88,236 No Change 0 $ 0 $ 1,292
First Republic Investment Management Inc 2016-09-30 25,000 No Change 0 $ 0 $ 366
Msi Financial Services Inc 2016-09-30 75 No Change 0 $ 0 $ 1
Entrustpermal Management Llc 2016-09-30 167,900 No Change 0 $ 0 $ 2,459
Kazazian Asset Management Llc 2016-09-30 139,486 No Change 0 $ 0 $ 2,043
National Asset Management Inc 2016-09-30 19,242 Sold Some -12 $ -0 $ 281
Piedmont Investment Advisors Llc 2016-09-30 44 Sold Some -44 $ -0 $ 0
Mufg Americas Holdings Corp 2016-09-30 215 Sold Some -105 $ -1 $ 3
Pnc Financial Services Group Inc 2016-09-30 11,842 Sold Some -206 $ -3 $ 173
Strs Ohio 2016-09-30 9,200 Sold Some -300 $ -4 $ 134
Legal General Group Plc 2016-09-30 3,752 Sold Some -379 $ -5 $ 54
Blackrock Investment Management Llc 2016-09-30 121,465 Sold Some -457 $ -6 $ 1,779
Us Bancorp De 2016-09-30 294 Sold Some -750 $ -10 $ 4
Cutler Group Lp 2016-09-30 5,130 Sold Some -800 $ -11 $ 75
Wedbush Securities Inc 2016-09-30 77,962 Sold Some -1,256 $ -18 $ 1,142
Qs Investors Llc 2016-09-30 0 Sold All -2,361 $ -34 $ 0
Teacher Retirement System Of Texas 2016-09-30 0 Sold All -3,977 $ -58 $ 0
Guggenheim Capital Llc 2016-09-30 45,423 Sold Some -3,988 $ -58 $ 665
Oppenheimer Co Inc 2016-09-30 190,908 Sold Some -5,000 $ -73 $ 2,796
Spot Trading L L C 2016-09-30 0 Sold All -10,300 $ -150 $ 0
Kcg Holdings Inc 2016-09-30 0 Sold All -10,580 $ -154 $ 0
Menta Capital Llc 2016-09-30 12,320 Sold Some -12,180 $ -178 $ 180
Fuller Thaler Asset Management Inc 2016-09-30 2,318,257 Sold Some -12,211 $ -178 $ 33,962
Putnam Investments Llc 2016-09-30 0 Sold All -13,608 $ -199 $ 0
Emerald Acquisition Ltd 2016-09-30 477 Sold Some -29,540 $ -432 $ 6
Counsel Portfolio Services Inc 2016-06-30 0 Sold All -53,675 $ -775 $ 0
Cedar Hill Associates Llc 2016-09-30 126,800 Sold Some -56,700 $ -830 $ 1,857
Hightower Advisors Llc 2016-09-30 0 Sold All -64,864 $ -950 $ 0